createdAt,value
2023-02-26T00:01:46.094Z,6.93
2023-02-26T00:04:13.131Z,8.38
2023-02-26T00:06:54.505Z,6.40
2023-02-26T00:09:23.545Z,5.35
2023-02-26T00:11:51.177Z,5.97
2023-02-26T00:14:18.875Z,6.57
2023-02-26T00:17:12.407Z,7.63
2023-02-26T00:19:39.919Z,7.15
2023-02-26T00:22:07.421Z,6.35
2023-02-26T00:24:34.403Z,7.15
2023-02-26T00:27:01.485Z,6.70
2023-02-26T00:29:28.979Z,5.78
2023-02-26T00:31:56.572Z,6.93
2023-02-26T00:34:23.943Z,6.70
2023-02-26T00:37:24.462Z,9.40
2023-02-26T00:40:21.664Z,9.00
2023-02-26T00:42:49.382Z,8.43
2023-02-26T00:45:17.387Z,7.22
2023-02-26T00:48:45.552Z,8.02
2023-02-26T00:51:37.892Z,10.68
2023-02-26T00:54:16.664Z,8.15
2023-02-26T00:56:43.835Z,8.65
2023-02-26T00:59:10.920Z,7.10
2023-02-26T01:01:38.299Z,6.38
2023-02-26T01:04:06.174Z,7.70
2023-02-26T01:06:38.317Z,6.25
2023-02-26T01:09:08.375Z,8.38
2023-02-26T01:11:36.626Z,10.55
2023-02-26T01:14:05.623Z,4.95
2023-02-26T01:16:49.259Z,4.90
2023-02-26T01:19:36.201Z,5.97
2023-02-26T01:22:33.260Z,3.25
2023-02-26T01:25:10.130Z,6.78
2023-02-26T01:27:37.835Z,4.15
2023-02-26T01:30:07.486Z,5.18
2023-02-26T01:33:28.916Z,4.55
2023-02-26T01:36:08.516Z,5.05
2023-02-26T01:39:12.374Z,4.60
2023-02-26T01:41:55.034Z,3.38
2023-02-26T01:45:04.319Z,4.97
2023-02-26T01:47:48.536Z,4.53
2023-02-26T01:50:25.776Z,4.57
2023-02-26T01:53:13.697Z,6.63
2023-02-26T01:55:56.819Z,5.85
2023-02-26T02:00:53.404Z,6.93
2023-02-26T02:03:24.707Z,8.05
2023-02-26T02:05:59.274Z,8.63
2023-02-26T02:08:26.500Z,6.45
2023-02-26T02:10:54.646Z,8.55
2023-02-26T02:13:32.040Z,6.05
2023-02-26T02:16:43.118Z,4.95
2023-02-26T02:19:30.846Z,5.20
2023-02-26T02:22:59.724Z,5.75
2023-02-26T02:25:53.915Z,5.32
2023-02-26T02:29:03.621Z,4.30
2023-02-26T02:31:47.064Z,3.38
2023-02-26T02:34:46.246Z,4.13
2023-02-26T02:37:34.597Z,3.45
2023-02-26T02:40:16.992Z,5.70
2023-02-26T02:42:56.337Z,3.63
2023-02-26T02:45:36.336Z,5.63
2023-02-26T02:48:25.318Z,5.00
2023-02-26T02:51:12.657Z,2.70
2023-02-26T02:54:07.193Z,3.80
2023-02-26T02:57:08.205Z,4.07
2023-02-26T02:59:53.684Z,7.40
2023-02-26T03:03:00.985Z,6.63
2023-02-26T03:05:28.221Z,10.02
2023-02-26T03:08:14.838Z,6.63
2023-02-26T03:10:42.926Z,6.40
2023-02-26T03:13:23.399Z,4.35
2023-02-26T03:16:49.868Z,5.55
2023-02-26T03:20:08.097Z,5.38
2023-02-26T03:22:52.951Z,6.10
2023-02-26T03:25:38.050Z,3.97
2023-02-26T03:28:25.874Z,4.88
2023-02-26T03:31:02.508Z,3.35
2023-02-26T03:33:54.487Z,3.40
2023-02-26T03:36:36.236Z,3.67
2023-02-26T03:39:20.355Z,3.83
2023-02-26T03:42:08.196Z,5.55
2023-02-26T03:44:44.073Z,4.43
2023-02-26T03:47:15.870Z,4.63
2023-02-26T03:49:50.520Z,4.97
2023-02-26T03:52:17.770Z,4.90
2023-02-26T03:55:00.335Z,3.30
2023-02-26T03:57:27.878Z,4.38
2023-02-26T03:59:55.222Z,3.78
2023-02-26T04:02:33.361Z,5.00
2023-02-26T04:05:16.244Z,5.38
2023-02-26T04:07:45.567Z,3.08
2023-02-26T04:10:18.574Z,3.45
2023-02-26T04:12:45.590Z,3.75
2023-02-26T04:15:13.112Z,7.55
2023-02-26T04:17:40.072Z,4.00
2023-02-26T04:20:09.933Z,5.70
2023-02-26T04:22:38.357Z,3.47
2023-02-26T04:25:06.404Z,6.75
2023-02-26T04:27:33.392Z,4.78
2023-02-26T04:30:00.445Z,3.60
2023-02-26T04:32:27.490Z,2.95
2023-02-26T04:34:54.533Z,4.90
2023-02-26T04:37:21.483Z,3.67
2023-02-26T04:39:48.492Z,5.63
2023-02-26T04:42:15.522Z,4.22
2023-02-26T04:44:42.537Z,2.65
2023-02-26T04:47:09.665Z,3.30
2023-02-26T04:49:36.677Z,3.75
2023-02-26T04:52:03.681Z,5.45
2023-02-26T04:54:30.915Z,4.22
2023-02-26T04:56:58.206Z,3.38
2023-02-26T04:59:25.229Z,5.55
2023-02-26T05:01:52.263Z,3.92
2023-02-26T05:04:19.393Z,4.93
2023-02-26T05:06:46.448Z,6.22
2023-02-26T05:09:13.519Z,3.70
2023-02-26T05:11:40.534Z,5.95
2023-02-26T05:14:07.851Z,3.67
2023-02-26T05:16:35.639Z,10.43
2023-02-26T05:19:02.713Z,9.10
2023-02-26T05:21:29.815Z,9.18
2023-02-26T05:23:56.872Z,6.35
2023-02-26T05:26:24.452Z,4.15
2023-02-26T05:28:52.621Z,6.82
2023-02-26T05:31:20.031Z,4.35
2023-02-26T05:33:47.009Z,6.93
2023-02-26T05:36:14.308Z,4.57
2023-02-26T05:38:41.291Z,7.28
2023-02-26T05:41:08.341Z,6.38
2023-02-26T05:43:36.019Z,6.82
2023-02-26T05:46:03.287Z,6.85
2023-02-26T05:48:30.408Z,12.45
2023-02-26T05:50:57.495Z,6.32
2023-02-26T05:53:24.524Z,7.70
2023-02-26T05:55:54.225Z,7.63
2023-02-26T05:58:22.891Z,6.40
2023-02-26T06:00:50.257Z,8.23
2023-02-26T06:03:17.325Z,8.50
2023-02-26T06:05:44.563Z,9.10
2023-02-26T06:08:15.565Z,9.30
2023-02-26T06:10:43.667Z,11.63
2023-02-26T06:13:11.009Z,18.50
2023-02-26T06:15:38.008Z,15.57
2023-02-26T06:18:05.299Z,11.77
2023-02-26T06:20:32.386Z,12.80
2023-02-26T06:22:59.348Z,15.45
2023-02-26T06:25:26.502Z,11.43
2023-02-26T06:27:53.517Z,12.88
2023-02-26T06:30:20.745Z,9.45
2023-02-26T06:32:47.807Z,9.60
2023-02-26T06:35:14.989Z,9.80
2023-02-26T06:37:41.991Z,9.35
2023-02-26T06:40:10.857Z,10.05
2023-02-26T06:42:38.162Z,9.65
2023-02-26T06:45:05.854Z,9.38
2023-02-26T06:47:33.050Z,11.50
2023-02-26T06:50:00.118Z,10.93
2023-02-26T06:52:27.180Z,16.60
2023-02-26T06:54:54.245Z,17.73
2023-02-26T06:57:21.250Z,16.80
2023-02-26T06:59:48.393Z,21.23
2023-02-26T07:02:22.305Z,16.30
2023-02-26T07:04:49.517Z,15.95
2023-02-26T07:07:16.860Z,10.60
2023-02-26T07:09:45.934Z,10.35
2023-02-26T07:12:13.531Z,14.48
2023-02-26T07:14:40.876Z,13.13
2023-02-26T07:17:07.919Z,13.10
2023-02-26T07:19:35.039Z,10.00
2023-02-26T07:22:02.178Z,13.50
2023-02-26T07:24:29.795Z,11.38
2023-02-26T07:26:56.854Z,11.18
2023-02-26T07:29:23.944Z,10.48
2023-02-26T07:31:51.142Z,10.38
2023-02-26T07:34:18.458Z,10.13
2023-02-26T07:36:45.448Z,10.63
2023-02-26T07:39:12.629Z,11.55
2023-02-26T07:41:39.735Z,10.68
2023-02-26T07:44:07.204Z,10.07
2023-02-26T07:46:34.311Z,11.98
2023-02-26T07:49:01.346Z,12.00
2023-02-26T07:51:28.537Z,9.48
2023-02-26T07:53:55.566Z,10.50
2023-02-26T07:56:22.644Z,9.80
2023-02-26T07:58:49.638Z,9.43
2023-02-26T08:01:16.712Z,12.57
2023-02-26T08:03:43.720Z,12.25
2023-02-26T08:06:10.949Z,12.20
2023-02-26T08:08:38.030Z,9.70
2023-02-26T08:11:06.665Z,12.07
2023-02-26T08:13:33.965Z,13.32
2023-02-26T08:16:01.015Z,9.93
2023-02-26T08:18:29.130Z,12.68
2023-02-26T08:20:56.823Z,12.07
2023-02-26T08:23:24.132Z,12.40
2023-02-26T08:25:52.618Z,10.45
2023-02-26T08:28:26.743Z,12.17
2023-02-26T08:30:57.364Z,10.60
2023-02-26T08:33:26.183Z,14.48
2023-02-26T08:35:53.860Z,14.93
2023-02-26T08:38:21.453Z,15.30
2023-02-26T08:40:52.704Z,12.70
2023-02-26T08:43:23.449Z,13.98
2023-02-26T08:45:54.246Z,12.98
2023-02-26T08:48:24.077Z,12.13
2023-02-26T08:50:51.664Z,14.85
2023-02-26T08:53:18.781Z,13.55
2023-02-26T08:55:50.393Z,13.00
2023-02-26T08:58:18.130Z,11.18
2023-02-26T09:00:45.766Z,14.30
2023-02-26T09:03:13.582Z,14.05
2023-02-26T09:05:40.995Z,14.27
2023-02-26T09:08:09.277Z,11.32
2023-02-26T09:10:36.349Z,8.90
2023-02-26T09:13:03.373Z,9.98
2023-02-26T09:15:30.514Z,10.20
2023-02-26T09:17:57.961Z,11.15
2023-02-26T09:20:25.183Z,9.85
2023-02-26T09:22:52.322Z,14.23
2023-02-26T09:25:22.295Z,15.75
2023-02-26T09:27:49.746Z,11.60
2023-02-26T09:30:17.450Z,13.13
2023-02-26T09:32:44.723Z,12.23
2023-02-26T09:35:11.819Z,10.80
2023-02-26T09:37:40.123Z,12.40
2023-02-26T09:40:15.846Z,10.88
2023-02-26T09:43:08.900Z,15.68
2023-02-26T09:45:42.401Z,15.65
2023-02-26T09:48:16.360Z,13.27
2023-02-26T09:50:51.708Z,19.33
2023-02-26T09:53:31.357Z,15.32
2023-02-26T09:56:26.114Z,17.05
2023-02-26T09:58:55.557Z,29.48
2023-02-26T10:01:36.662Z,14.15
2023-02-26T10:04:21.906Z,17.73
2023-02-26T10:07:16.778Z,11.93
2023-02-26T10:10:10.901Z,13.13
2023-02-26T10:12:42.505Z,10.80
2023-02-26T10:15:37.956Z,14.18
2023-02-26T10:18:19.627Z,12.30
2023-02-26T10:21:09.599Z,18.25
2023-02-26T10:23:45.321Z,14.57
2023-02-26T10:26:21.688Z,11.68
2023-02-26T10:29:07.433Z,11.25
2023-02-26T10:32:17.605Z,8.93
2023-02-26T10:35:04.229Z,9.07
2023-02-26T10:37:48.911Z,12.25
2023-02-26T10:40:50.325Z,10.23
2023-02-26T10:43:32.357Z,8.27
2023-02-26T10:46:52.069Z,11.02
2023-02-26T10:49:33.738Z,10.55
2023-02-26T10:52:23.604Z,10.45
2023-02-26T10:54:56.665Z,12.57
2023-02-26T10:57:33.203Z,12.73
2023-02-26T11:00:01.878Z,12.05
2023-02-26T11:02:41.381Z,14.52
2023-02-26T11:05:19.529Z,14.32
2023-02-26T11:07:54.688Z,12.65
2023-02-26T11:10:27.342Z,11.95
2023-02-26T11:12:54.489Z,11.80
2023-02-26T11:15:25.919Z,10.10
2023-02-26T11:17:59.990Z,14.55
2023-02-26T11:20:44.136Z,11.25
2023-02-26T11:23:20.801Z,11.50
2023-02-26T11:26:04.773Z,9.50
2023-02-26T11:28:42.910Z,9.90
2023-02-26T11:31:15.133Z,11.95
2023-02-26T11:34:05.026Z,9.43
2023-02-26T11:36:34.663Z,11.68
2023-02-26T11:39:16.754Z,9.73
2023-02-26T11:41:47.638Z,12.10
2023-02-26T11:44:41.124Z,12.80
2023-02-26T11:47:16.497Z,9.63
2023-02-26T11:50:19.892Z,11.80
2023-02-26T11:52:56.211Z,9.88
2023-02-26T11:55:44.900Z,11.10
2023-02-26T11:58:23.532Z,12.10
2023-02-26T12:00:58.116Z,11.57
2023-02-26T12:03:32.224Z,11.60
2023-02-26T12:06:01.748Z,10.60
2023-02-26T12:08:40.742Z,10.95
2023-02-26T12:11:44.124Z,11.00
2023-02-26T12:14:35.596Z,12.35
2023-02-26T12:17:20.380Z,11.80
2023-02-26T12:20:20.053Z,12.52
2023-02-26T12:23:14.383Z,9.20
2023-02-26T12:26:18.743Z,10.75
2023-02-26T12:29:07.799Z,10.27
2023-02-26T12:31:59.185Z,10.52
2023-02-26T12:34:47.003Z,10.82
2023-02-26T12:38:06.246Z,9.57
2023-02-26T12:41:06.627Z,9.93
2023-02-26T12:43:51.398Z,9.23
2023-02-26T12:46:33.222Z,9.00
2023-02-26T12:49:21.387Z,8.82
2023-02-26T12:52:17.447Z,8.60
2023-02-26T12:55:24.413Z,10.30
2023-02-26T12:58:24.393Z,13.85
2023-02-26T13:01:14.536Z,8.88
2023-02-26T13:04:03.085Z,12.73
2023-02-26T13:07:11.728Z,11.43
2023-02-26T13:09:56.624Z,9.85
2023-02-26T13:13:13.239Z,11.13
2023-02-26T13:16:07.683Z,11.85
2023-02-26T13:18:49.109Z,9.43
2023-02-26T13:21:31.174Z,9.60
2023-02-26T13:24:12.582Z,9.45
2023-02-26T13:26:42.639Z,9.30
2023-02-26T13:29:19.504Z,11.07
2023-02-26T13:31:57.213Z,7.80
2023-02-26T13:34:50.444Z,11.32
2023-02-26T13:37:34.272Z,9.50
2023-02-26T13:40:30.058Z,9.05
2023-02-26T13:43:27.250Z,8.02
2023-02-26T13:46:22.540Z,8.68
2023-02-26T13:49:19.027Z,9.77
2023-02-26T13:51:49.636Z,5.15
2023-02-26T13:54:22.808Z,10.45
2023-02-26T13:57:33.172Z,7.22
2023-02-26T14:00:29.102Z,6.22
2023-02-26T14:02:59.165Z,8.38
2023-02-26T14:06:09.258Z,8.82
2023-02-26T14:08:45.240Z,9.10
2023-02-26T14:11:18.354Z,6.97
2023-02-26T14:14:23.686Z,6.60
2023-02-26T14:17:13.947Z,6.10
2023-02-26T14:19:52.789Z,7.85
2023-02-26T14:22:44.281Z,7.20
2023-02-26T14:25:35.219Z,7.35
2023-02-26T14:28:30.877Z,9.10
2023-02-26T14:31:04.302Z,7.63
2023-02-26T14:33:46.188Z,7.07
2023-02-26T14:36:47.813Z,8.85
2023-02-26T14:39:36.816Z,6.43
2023-02-26T14:42:28.945Z,11.10
2023-02-26T14:45:31.808Z,6.68
2023-02-26T14:48:01.961Z,4.47
2023-02-26T14:51:22.590Z,6.75
2023-02-26T14:53:58.785Z,7.22
2023-02-26T14:57:10.725Z,9.45
2023-02-26T15:00:13.968Z,10.35
2023-02-26T15:03:16.270Z,11.30
2023-02-26T15:06:08.475Z,9.40
2023-02-26T15:09:01.041Z,8.40
2023-02-26T15:11:36.729Z,10.35
2023-02-26T15:14:43.629Z,7.78
2023-02-26T15:18:01.269Z,9.80
2023-02-26T15:21:04.410Z,10.85
2023-02-26T15:23:45.657Z,6.15
2023-02-26T15:26:26.328Z,9.85
2023-02-26T15:28:54.846Z,11.60
2023-02-26T15:31:32.132Z,6.90
2023-02-26T15:33:59.604Z,9.02
2023-02-26T15:36:31.493Z,8.75
2023-02-26T15:39:03.695Z,7.45
2023-02-26T15:41:33.920Z,8.82
2023-02-26T15:44:10.716Z,9.00
2023-02-26T15:46:50.904Z,9.35
2023-02-26T15:49:24.245Z,11.48
2023-02-26T15:51:53.310Z,6.93
2023-02-26T15:54:24.727Z,10.20
2023-02-26T15:56:53.001Z,11.32
2023-02-26T15:59:30.670Z,11.65
2023-02-26T16:01:58.308Z,11.10
2023-02-26T16:04:25.188Z,9.18
2023-02-26T16:06:58.255Z,7.88
2023-02-26T16:09:34.929Z,13.82
2023-02-26T16:12:16.306Z,11.07
2023-02-26T16:14:51.561Z,12.05
2023-02-26T16:17:34.776Z,12.52
2023-02-26T16:22:50.257Z,11.25
2023-02-26T16:25:36.694Z,11.13
2023-02-26T16:28:13.675Z,13.88
2023-02-26T16:30:47.546Z,8.82
2023-02-26T16:33:18.705Z,13.00
2023-02-26T16:35:53.340Z,10.98
2023-02-26T16:38:26.359Z,11.73
2023-02-26T16:41:07.796Z,11.80
2023-02-26T16:43:49.609Z,10.23
2023-02-26T16:46:43.325Z,9.27
2023-02-26T16:49:23.813Z,9.15
2023-02-26T16:51:52.821Z,9.15
2023-02-26T16:54:28.507Z,12.45
2023-02-26T16:57:06.080Z,11.02
2023-02-26T16:59:38.594Z,15.90
2023-02-26T17:02:24.699Z,11.15
2023-02-26T17:04:59.724Z,11.63
2023-02-26T17:07:34.351Z,11.23
2023-02-26T17:10:50.035Z,11.90
2023-02-26T17:13:25.676Z,14.10
2023-02-26T17:15:54.501Z,15.00
2023-02-26T17:18:21.507Z,13.15
2023-02-26T17:20:48.743Z,14.50
2023-02-26T17:23:18.749Z,14.38
2023-02-26T17:25:52.889Z,16.17
2023-02-26T17:28:36.229Z,13.13
2023-02-26T17:31:05.715Z,11.13
2023-02-26T17:33:32.738Z,14.27
2023-02-26T17:36:03.196Z,15.73
2023-02-26T17:38:32.944Z,15.43
2023-02-26T17:41:00.839Z,14.60
2023-02-26T17:43:28.918Z,17.08
2023-02-26T17:45:56.378Z,15.38
2023-02-26T17:48:25.127Z,12.90
2023-02-26T17:50:58.876Z,14.15
2023-02-26T17:53:27.776Z,17.55
2023-02-26T17:55:56.631Z,12.90
2023-02-26T17:58:34.095Z,14.93
2023-02-26T18:01:06.237Z,13.95
2023-02-26T18:03:33.676Z,12.25
2023-02-26T18:06:02.492Z,16.38
2023-02-26T18:08:35.166Z,13.68
2023-02-26T18:11:04.216Z,17.70
2023-02-26T18:13:32.224Z,15.85
2023-02-26T18:16:02.977Z,14.80
2023-02-26T18:18:32.013Z,11.20
2023-02-26T18:21:00.199Z,12.32
2023-02-26T18:23:27.295Z,15.15
2023-02-26T18:25:55.307Z,13.68
2023-02-26T18:28:26.639Z,15.55
2023-02-26T18:30:56.197Z,12.13
2023-02-26T18:33:25.060Z,11.60
2023-02-26T18:35:56.727Z,12.18
2023-02-26T18:38:27.645Z,12.55
2023-02-26T18:40:55.638Z,15.63
2023-02-26T18:43:23.055Z,13.88
2023-02-26T18:45:52.338Z,14.60
2023-02-26T18:48:21.497Z,13.35
2023-02-26T18:50:49.683Z,12.70
2023-02-26T18:53:17.892Z,15.23
2023-02-26T18:55:45.283Z,16.00
2023-02-26T18:58:13.245Z,14.10
2023-02-26T19:00:40.721Z,13.23
2023-02-26T19:03:09.718Z,12.48
2023-02-26T19:05:38.112Z,11.35
2023-02-26T19:08:06.933Z,13.82
2023-02-26T19:10:34.810Z,10.82
2023-02-26T19:13:03.141Z,13.38
2023-02-26T19:15:31.148Z,12.23
2023-02-26T19:17:58.537Z,8.93
2023-02-26T19:20:25.992Z,11.18
2023-02-26T19:22:53.391Z,11.65
2023-02-26T19:25:24.471Z,14.80
2023-02-26T19:27:53.691Z,13.02
2023-02-26T19:30:23.423Z,13.13
2023-02-26T19:32:53.270Z,12.63
2023-02-26T19:35:21.357Z,12.52
2023-02-26T19:37:48.856Z,12.85
2023-02-26T19:40:19.636Z,17.67
2023-02-26T19:42:47.690Z,17.23
2023-02-26T19:45:15.750Z,19.63
2023-02-26T19:47:42.680Z,18.20
2023-02-26T19:50:12.921Z,24.25
2023-02-26T19:52:41.002Z,30.83
2023-02-26T19:55:09.412Z,26.35
2023-02-26T19:57:36.893Z,24.60
2023-02-26T20:00:05.667Z,22.55
2023-02-26T20:02:32.899Z,22.15
2023-02-26T20:05:00.763Z,23.75
2023-02-26T20:07:27.668Z,22.27
2023-02-26T20:09:54.599Z,23.75
2023-02-26T20:12:21.606Z,24.05
2023-02-26T20:14:49.063Z,23.55
2023-02-26T20:17:16.057Z,25.40
2023-02-26T20:19:44.549Z,24.70
2023-02-26T20:22:11.762Z,21.17
2023-02-26T20:24:38.817Z,17.35
2023-02-26T20:27:07.243Z,20.63
2023-02-26T20:29:34.579Z,16.73
2023-02-26T20:32:01.725Z,13.85
2023-02-26T20:34:28.622Z,14.50
2023-02-26T20:36:55.867Z,16.52
2023-02-26T20:39:23.648Z,14.15
2023-02-26T20:41:50.750Z,14.82
2023-02-26T20:44:18.877Z,12.30
2023-02-26T20:46:46.038Z,14.82
2023-02-26T20:49:13.030Z,13.98
2023-02-26T20:51:42.437Z,13.18
2023-02-26T20:54:16.199Z,13.18
2023-02-26T20:56:43.525Z,16.80
2023-02-26T20:59:10.624Z,11.90
2023-02-26T21:01:37.616Z,15.23
2023-02-26T21:04:09.162Z,11.82
2023-02-26T21:06:37.257Z,15.25
2023-02-26T21:09:06.119Z,9.73
2023-02-26T21:11:36.850Z,12.82
2023-02-26T21:14:09.589Z,13.05
2023-02-26T21:16:39.789Z,11.68
2023-02-26T21:19:06.821Z,15.00
2023-02-26T21:21:33.949Z,15.07
2023-02-26T21:24:01.115Z,15.88
2023-02-26T21:26:28.102Z,16.63
2023-02-26T21:28:55.075Z,13.43
2023-02-26T21:31:22.406Z,14.10
2023-02-26T21:33:49.504Z,16.02
2023-02-26T21:36:16.491Z,19.23
2023-02-26T21:38:43.543Z,16.27
2023-02-26T21:41:10.989Z,15.13
2023-02-26T21:43:38.202Z,16.08
2023-02-26T21:46:05.721Z,15.68
2023-02-26T21:48:32.891Z,15.32
2023-02-26T21:50:59.932Z,14.90
2023-02-26T21:53:27.944Z,21.23
2023-02-26T21:55:56.769Z,12.00
2023-02-26T21:58:25.430Z,11.90
2023-02-26T22:00:52.624Z,13.52
2023-02-26T22:03:19.970Z,17.40
2023-02-26T22:05:50.347Z,15.27
2023-02-26T22:08:17.188Z,15.70
2023-02-26T22:10:45.552Z,13.90
2023-02-26T22:13:12.943Z,12.57
2023-02-26T22:15:40.126Z,14.02
2023-02-26T22:18:08.768Z,11.50
2023-02-26T22:20:35.604Z,11.00
2023-02-26T22:23:02.602Z,12.63
2023-02-26T22:25:29.534Z,11.07
2023-02-26T22:27:56.649Z,11.30
2023-02-26T22:30:23.866Z,13.77
2023-02-26T22:32:50.841Z,12.48
2023-02-26T22:35:17.873Z,10.63
2023-02-26T22:37:45.088Z,10.73
2023-02-26T22:40:13.936Z,9.65
2023-02-26T22:42:42.895Z,11.55
2023-02-26T22:45:17.136Z,10.00
2023-02-26T22:47:46.379Z,10.75
2023-02-26T22:50:15.553Z,11.50
2023-02-26T22:52:43.335Z,12.52
2023-02-26T22:55:11.760Z,12.48
2023-02-26T22:57:38.703Z,8.40
2023-02-26T23:00:12.103Z,11.48
2023-02-26T23:02:39.426Z,9.50
2023-02-26T23:05:09.175Z,9.80
2023-02-26T23:07:37.835Z,11.95
2023-02-26T23:10:08.863Z,10.70
2023-02-26T23:12:35.764Z,8.32
2023-02-26T23:15:03.109Z,9.82
2023-02-26T23:17:30.325Z,11.00
2023-02-26T23:19:57.209Z,8.60
2023-02-26T23:22:24.392Z,11.63
2023-02-26T23:24:51.206Z,12.90
2023-02-26T23:27:18.751Z,11.32
2023-02-26T23:29:45.956Z,9.95
2023-02-26T23:32:15.068Z,12.23
2023-02-26T23:34:42.002Z,10.25
2023-02-26T23:37:08.908Z,10.95
2023-02-26T23:39:35.841Z,14.45
2023-02-26T23:42:02.683Z,13.48
2023-02-26T23:44:29.672Z,13.45
2023-02-26T23:46:56.502Z,13.73
2023-02-26T23:49:23.331Z,14.55
2023-02-26T23:51:50.184Z,13.95
2023-02-26T23:54:17.029Z,12.50
2023-02-26T23:56:45.691Z,11.20
2023-02-26T23:59:13.824Z,11.48
